sensor_id;sensor_type;location;lat;lon;timestamp;P1;durP1;ratioP1;P2;durP2;ratioP2
70426;SDS011;57872;55.432;37.248;2023-08-07T00:03:38;11.70;;;6.25;;
70426;SDS011;57872;55.432;37.248;2023-08-07T00:08:39;11.65;;;6.55;;
70426;SDS011;57872;55.432;37.248;2023-08-07T00:13:39;12.57;;;6.67;;
70426;SDS011;57872;55.432;37.248;2023-08-07T00:18:40;13.77;;;6.95;;
70426;SDS011;57872;55.432;37.248;2023-08-07T00:23:41;12.57;;;6.67;;
70426;SDS011;57872;55.432;37.248;2023-08-07T00:28:42;11.77;;;6.70;;
70426;SDS011;57872;55.432;37.248;2023-08-07T00:33:42;12.20;;;6.05;;
70426;SDS011;57872;55.432;37.248;2023-08-07T00:38:46;13.93;;;6.88;;
70426;SDS011;57872;55.432;37.248;2023-08-07T00:43:55;11.65;;;6.60;;
70426;SDS011;57872;55.432;37.248;2023-08-07T00:49:29;9.30;;;6.37;;
70426;SDS011;57872;55.432;37.248;2023-08-07T00:55:08;12.15;;;6.38;;
70426;SDS011;57872;55.432;37.248;2023-08-07T01:00:34;11.63;;;6.28;;
70426;SDS011;57872;55.432;37.248;2023-08-07T01:06:01;11.68;;;6.15;;
70426;SDS011;57872;55.432;37.248;2023-08-07T01:16:26;11.73;;;5.90;;
70426;SDS011;57872;55.432;37.248;2023-08-07T01:21:31;10.93;;;6.07;;
70426;SDS011;57872;55.432;37.248;2023-08-07T01:26:36;9.65;;;6.13;;
70426;SDS011;57872;55.432;37.248;2023-08-07T01:31:37;11.10;;;6.37;;
70426;SDS011;57872;55.432;37.248;2023-08-07T01:36:50;19.42;;;13.48;;
70426;SDS011;57872;55.432;37.248;2023-08-07T01:41:51;9.20;;;6.07;;
70426;SDS011;57872;55.432;37.248;2023-08-07T01:46:51;11.75;;;6.05;;
70426;SDS011;57872;55.432;37.248;2023-08-07T01:51:52;12.48;;;6.68;;
70426;SDS011;57872;55.432;37.248;2023-08-07T01:56:53;10.48;;;6.03;;
70426;SDS011;57872;55.432;37.248;2023-08-07T02:02:00;9.63;;;6.13;;
70426;SDS011;57872;55.432;37.248;2023-08-07T02:07:10;13.82;;;6.65;;
70426;SDS011;57872;55.432;37.248;2023-08-07T02:12:11;11.50;;;6.38;;
70426;SDS011;57872;55.432;37.248;2023-08-07T02:17:12;9.48;;;5.90;;
70426;SDS011;57872;55.432;37.248;2023-08-07T02:22:12;12.32;;;6.35;;
70426;SDS011;57872;55.432;37.248;2023-08-07T02:27:13;10.02;;;6.00;;
70426;SDS011;57872;55.432;37.248;2023-08-07T02:32:32;16.05;;;6.47;;
70426;SDS011;57872;55.432;37.248;2023-08-07T02:38:03;14.30;;;6.32;;
70426;SDS011;57872;55.432;37.248;2023-08-07T02:43:06;15.73;;;6.53;;
70426;SDS011;57872;55.432;37.248;2023-08-07T02:48:33;13.13;;;6.78;;
70426;SDS011;57872;55.432;37.248;2023-08-07T02:53:33;14.00;;;6.45;;
70426;SDS011;57872;55.432;37.248;2023-08-07T02:58:36;9.23;;;5.75;;
70426;SDS011;57872;55.432;37.248;2023-08-07T03:03:52;9.80;;;6.35;;
70426;SDS011;57872;55.432;37.248;2023-08-07T03:08:53;14.05;;;6.80;;
70426;SDS011;57872;55.432;37.248;2023-08-07T03:13:54;12.25;;;6.07;;
70426;SDS011;57872;55.432;37.248;2023-08-07T03:19:07;11.37;;;5.80;;
70426;SDS011;57872;55.432;37.248;2023-08-07T03:24:32;12.27;;;6.32;;
70426;SDS011;57872;55.432;37.248;2023-08-07T03:30:07;10.48;;;5.97;;
70426;SDS011;57872;55.432;37.248;2023-08-07T03:35:08;14.27;;;5.60;;
70426;SDS011;57872;55.432;37.248;2023-08-07T03:40:16;10.95;;;5.93;;
70426;SDS011;57872;55.432;37.248;2023-08-07T03:45:17;10.07;;;5.72;;
70426;SDS011;57872;55.432;37.248;2023-08-07T03:50:18;11.10;;;6.10;;
70426;SDS011;57872;55.432;37.248;2023-08-07T03:55:22;11.15;;;5.10;;
70426;SDS011;57872;55.432;37.248;2023-08-07T04:00:33;11.75;;;5.50;;
70426;SDS011;57872;55.432;37.248;2023-08-07T04:05:39;9.48;;;5.78;;
70426;SDS011;57872;55.432;37.248;2023-08-07T04:11:08;8.18;;;5.35;;
70426;SDS011;57872;55.432;37.248;2023-08-07T04:16:12;9.13;;;5.10;;
70426;SDS011;57872;55.432;37.248;2023-08-07T04:21:15;12.25;;;5.00;;
70426;SDS011;57872;55.432;37.248;2023-08-07T04:26:26;9.90;;;5.57;;
70426;SDS011;57872;55.432;37.248;2023-08-07T04:31:29;9.15;;;4.45;;
70426;SDS011;57872;55.432;37.248;2023-08-07T04:36:38;10.65;;;5.20;;
70426;SDS011;57872;55.432;37.248;2023-08-07T04:42:11;10.85;;;6.25;;
70426;SDS011;57872;55.432;37.248;2023-08-07T04:47:44;8.88;;;5.10;;
70426;SDS011;57872;55.432;37.248;2023-08-07T04:52:45;9.90;;;5.40;;
70426;SDS011;57872;55.432;37.248;2023-08-07T04:57:46;9.90;;;4.97;;
70426;SDS011;57872;55.432;37.248;2023-08-07T05:03:01;9.35;;;4.88;;
70426;SDS011;57872;55.432;37.248;2023-08-07T05:08:21;8.98;;;5.22;;
70426;SDS011;57872;55.432;37.248;2023-08-07T05:18:26;8.32;;;4.20;;
70426;SDS011;57872;55.432;37.248;2023-08-07T05:23:48;8.88;;;4.40;;
70426;SDS011;57872;55.432;37.248;2023-08-07T05:28:48;11.53;;;4.63;;
70426;SDS011;57872;55.432;37.248;2023-08-07T05:33:57;10.50;;;4.90;;
70426;SDS011;57872;55.432;37.248;2023-08-07T05:39:23;10.20;;;4.88;;
70426;SDS011;57872;55.432;37.248;2023-08-07T05:44:43;11.90;;;4.60;;
70426;SDS011;57872;55.432;37.248;2023-08-07T05:49:50;10.00;;;4.50;;
70426;SDS011;57872;55.432;37.248;2023-08-07T05:55:36;9.85;;;4.47;;
70426;SDS011;57872;55.432;37.248;2023-08-07T06:01:18;8.30;;;4.50;;
70426;SDS011;57872;55.432;37.248;2023-08-07T06:06:22;9.65;;;4.40;;
70426;SDS011;57872;55.432;37.248;2023-08-07T06:11:23;13.45;;;4.07;;
70426;SDS011;57872;55.432;37.248;2023-08-07T06:16:26;9.38;;;4.20;;
70426;SDS011;57872;55.432;37.248;2023-08-07T06:21:27;8.35;;;3.78;;
70426;SDS011;57872;55.432;37.248;2023-08-07T06:26:28;8.43;;;4.55;;
70426;SDS011;57872;55.432;37.248;2023-08-07T06:31:29;8.20;;;3.80;;
70426;SDS011;57872;55.432;37.248;2023-08-07T06:36:44;7.80;;;4.05;;
70426;SDS011;57872;55.432;37.248;2023-08-07T06:41:45;6.87;;;3.67;;
70426;SDS011;57872;55.432;37.248;2023-08-07T06:46:51;14.70;;;4.00;;
70426;SDS011;57872;55.432;37.248;2023-08-07T06:51:52;7.87;;;3.80;;
70426;SDS011;57872;55.432;37.248;2023-08-07T06:56:53;7.77;;;3.70;;
70426;SDS011;57872;55.432;37.248;2023-08-07T07:01:54;10.33;;;3.60;;
70426;SDS011;57872;55.432;37.248;2023-08-07T07:06:55;9.70;;;3.60;;
70426;SDS011;57872;55.432;37.248;2023-08-07T07:11:56;8.10;;;3.53;;
70426;SDS011;57872;55.432;37.248;2023-08-07T07:16:56;8.40;;;3.50;;
70426;SDS011;57872;55.432;37.248;2023-08-07T07:21:57;8.37;;;3.50;;
70426;SDS011;57872;55.432;37.248;2023-08-07T07:26:57;9.60;;;3.70;;
70426;SDS011;57872;55.432;37.248;2023-08-07T07:31:58;8.93;;;3.37;;
70426;SDS011;57872;55.432;37.248;2023-08-07T07:37:01;7.22;;;3.40;;
70426;SDS011;57872;55.432;37.248;2023-08-07T07:42:02;9.20;;;3.60;;
70426;SDS011;57872;55.432;37.248;2023-08-07T07:47:05;10.68;;;3.88;;
70426;SDS011;57872;55.432;37.248;2023-08-07T07:52:06;6.88;;;3.53;;
70426;SDS011;57872;55.432;37.248;2023-08-07T07:57:06;8.25;;;3.60;;
70426;SDS011;57872;55.432;37.248;2023-08-07T08:02:07;7.33;;;3.37;;
70426;SDS011;57872;55.432;37.248;2023-08-07T08:07:08;8.95;;;3.40;;
70426;SDS011;57872;55.432;37.248;2023-08-07T08:12:09;12.37;;;4.03;;
70426;SDS011;57872;55.432;37.248;2023-08-07T08:17:10;14.20;;;3.97;;
70426;SDS011;57872;55.432;37.248;2023-08-07T08:22:11;10.55;;;3.35;;
70426;SDS011;57872;55.432;37.248;2023-08-07T08:27:11;9.23;;;3.75;;
70426;SDS011;57872;55.432;37.248;2023-08-07T08:32:12;9.60;;;3.33;;
70426;SDS011;57872;55.432;37.248;2023-08-07T08:37:14;11.25;;;3.60;;
70426;SDS011;57872;55.432;37.248;2023-08-07T08:42:15;9.95;;;3.30;;
70426;SDS011;57872;55.432;37.248;2023-08-07T08:47:17;10.50;;;3.42;;
70426;SDS011;57872;55.432;37.248;2023-08-07T08:52:18;8.85;;;3.17;;
70426;SDS011;57872;55.432;37.248;2023-08-07T08:57:19;8.05;;;3.50;;
70426;SDS011;57872;55.432;37.248;2023-08-07T09:02:20;10.07;;;3.63;;
70426;SDS011;57872;55.432;37.248;2023-08-07T09:07:21;8.48;;;3.33;;
70426;SDS011;57872;55.432;37.248;2023-08-07T09:17:29;8.00;;;3.13;;
70426;SDS011;57872;55.432;37.248;2023-08-07T09:22:32;10.88;;;3.95;;
70426;SDS011;57872;55.432;37.248;2023-08-07T09:27:32;10.38;;;3.35;;
70426;SDS011;57872;55.432;37.248;2023-08-07T09:32:33;7.50;;;3.22;;
70426;SDS011;57872;55.432;37.248;2023-08-07T09:37:35;10.50;;;3.40;;
70426;SDS011;57872;55.432;37.248;2023-08-07T09:42:37;10.85;;;3.47;;
70426;SDS011;57872;55.432;37.248;2023-08-07T09:52:39;8.73;;;3.77;;
70426;SDS011;57872;55.432;37.248;2023-08-07T09:57:40;7.43;;;3.65;;
70426;SDS011;57872;55.432;37.248;2023-08-07T10:02:43;7.45;;;3.42;;
70426;SDS011;57872;55.432;37.248;2023-08-07T10:12:44;7.63;;;3.30;;
70426;SDS011;57872;55.432;37.248;2023-08-07T10:17:48;9.68;;;3.40;;
70426;SDS011;57872;55.432;37.248;2023-08-07T10:27:49;8.07;;;3.20;;
70426;SDS011;57872;55.432;37.248;2023-08-07T10:32:52;12.85;;;4.70;;
70426;SDS011;57872;55.432;37.248;2023-08-07T10:53:01;10.27;;;3.50;;
70426;SDS011;57872;55.432;37.248;2023-08-07T10:58:03;10.77;;;3.70;;
70426;SDS011;57872;55.432;37.248;2023-08-07T11:03:04;10.70;;;3.78;;
70426;SDS011;57872;55.432;37.248;2023-08-07T11:08:05;7.80;;;3.38;;
70426;SDS011;57872;55.432;37.248;2023-08-07T11:13:05;7.75;;;3.50;;
70426;SDS011;57872;55.432;37.248;2023-08-07T11:18:06;8.25;;;3.70;;
70426;SDS011;57872;55.432;37.248;2023-08-07T11:23:07;9.80;;;3.80;;
70426;SDS011;57872;55.432;37.248;2023-08-07T11:28:08;9.00;;;3.70;;
70426;SDS011;57872;55.432;37.248;2023-08-07T11:33:09;9.98;;;3.90;;
70426;SDS011;57872;55.432;37.248;2023-08-07T11:38:09;7.95;;;3.55;;
70426;SDS011;57872;55.432;37.248;2023-08-07T11:43:10;6.57;;;3.60;;
70426;SDS011;57872;55.432;37.248;2023-08-07T11:48:11;11.05;;;4.10;;
70426;SDS011;57872;55.432;37.248;2023-08-07T11:53:12;8.68;;;4.32;;
70426;SDS011;57872;55.432;37.248;2023-08-07T11:58:12;7.47;;;3.85;;
70426;SDS011;57872;55.432;37.248;2023-08-07T12:03:23;8.70;;;4.03;;
70426;SDS011;57872;55.432;37.248;2023-08-07T12:08:35;11.30;;;3.90;;
70426;SDS011;57872;55.432;37.248;2023-08-07T12:13:59;8.77;;;3.92;;
70426;SDS011;57872;55.432;37.248;2023-08-07T12:19:02;6.65;;;3.92;;
70426;SDS011;57872;55.432;37.248;2023-08-07T12:24:04;9.55;;;4.00;;
70426;SDS011;57872;55.432;37.248;2023-08-07T12:29:07;12.00;;;3.95;;
70426;SDS011;57872;55.432;37.248;2023-08-07T12:34:07;10.27;;;4.13;;
70426;SDS011;57872;55.432;37.248;2023-08-07T12:39:09;9.18;;;4.53;;
70426;SDS011;57872;55.432;37.248;2023-08-07T12:44:09;10.85;;;4.53;;
70426;SDS011;57872;55.432;37.248;2023-08-07T12:49:10;9.05;;;4.78;;
70426;SDS011;57872;55.432;37.248;2023-08-07T12:54:11;7.97;;;4.72;;
70426;SDS011;57872;55.432;37.248;2023-08-07T12:59:11;7.13;;;4.07;;
70426;SDS011;57872;55.432;37.248;2023-08-07T13:04:12;9.07;;;4.32;;
70426;SDS011;57872;55.432;37.248;2023-08-07T13:09:15;8.48;;;4.70;;
70426;SDS011;57872;55.432;37.248;2023-08-07T13:14:15;10.98;;;4.47;;
70426;SDS011;57872;55.432;37.248;2023-08-07T13:19:16;9.70;;;5.38;;
70426;SDS011;57872;55.432;37.248;2023-08-07T13:24:18;12.13;;;5.03;;
70426;SDS011;57872;55.432;37.248;2023-08-07T13:29:18;9.02;;;4.88;;
70426;SDS011;57872;55.432;37.248;2023-08-07T13:39:19;11.03;;;5.37;;
70426;SDS011;57872;55.432;37.248;2023-08-07T13:44:21;7.72;;;4.75;;
70426;SDS011;57872;55.432;37.248;2023-08-07T13:49:22;8.48;;;4.90;;
70426;SDS011;57872;55.432;37.248;2023-08-07T13:54:23;9.00;;;4.60;;
70426;SDS011;57872;55.432;37.248;2023-08-07T14:04:25;12.30;;;7.33;;
70426;SDS011;57872;55.432;37.248;2023-08-07T14:09:27;12.60;;;4.90;;
70426;SDS011;57872;55.432;37.248;2023-08-07T14:14:28;7.50;;;4.78;;
70426;SDS011;57872;55.432;37.248;2023-08-07T14:24:30;9.90;;;4.80;;
70426;SDS011;57872;55.432;37.248;2023-08-07T14:34:31;6.63;;;4.50;;
70426;SDS011;57872;55.432;37.248;2023-08-07T14:39:31;7.40;;;4.43;;
70426;SDS011;57872;55.432;37.248;2023-08-07T14:49:32;10.47;;;4.10;;
70426;SDS011;57872;55.432;37.248;2023-08-07T14:54:33;12.40;;;4.53;;
70426;SDS011;57872;55.432;37.248;2023-08-07T14:59:33;10.75;;;4.13;;
70426;SDS011;57872;55.432;37.248;2023-08-07T15:04:34;9.02;;;4.55;;
70426;SDS011;57872;55.432;37.248;2023-08-07T15:09:35;13.25;;;4.93;;
70426;SDS011;57872;55.432;37.248;2023-08-07T15:14:36;13.05;;;4.38;;
70426;SDS011;57872;55.432;37.248;2023-08-07T15:19:36;13.43;;;4.72;;
70426;SDS011;57872;55.432;37.248;2023-08-07T15:24:37;8.02;;;4.22;;
70426;SDS011;57872;55.432;37.248;2023-08-07T15:29:38;9.55;;;4.28;;
70426;SDS011;57872;55.432;37.248;2023-08-07T15:34:42;9.90;;;4.57;;
70426;SDS011;57872;55.432;37.248;2023-08-07T15:39:43;8.98;;;3.90;;
70426;SDS011;57872;55.432;37.248;2023-08-07T15:44:46;10.35;;;4.35;;
70426;SDS011;57872;55.432;37.248;2023-08-07T15:49:46;9.27;;;4.28;;
70426;SDS011;57872;55.432;37.248;2023-08-07T15:54:48;14.15;;;4.32;;
70426;SDS011;57872;55.432;37.248;2023-08-07T15:59:49;9.20;;;4.50;;
70426;SDS011;57872;55.432;37.248;2023-08-07T16:04:49;11.98;;;4.50;;
70426;SDS011;57872;55.432;37.248;2023-08-07T16:09:50;9.93;;;4.00;;
70426;SDS011;57872;55.432;37.248;2023-08-07T16:14:51;10.65;;;4.28;;
70426;SDS011;57872;55.432;37.248;2023-08-07T16:19:51;8.18;;;3.80;;
70426;SDS011;57872;55.432;37.248;2023-08-07T16:24:52;10.48;;;4.43;;
70426;SDS011;57872;55.432;37.248;2023-08-07T16:29:53;11.40;;;4.40;;
70426;SDS011;57872;55.432;37.248;2023-08-07T16:34:53;7.00;;;4.27;;
70426;SDS011;57872;55.432;37.248;2023-08-07T16:39:54;11.20;;;4.57;;
70426;SDS011;57872;55.432;37.248;2023-08-07T16:44:55;7.47;;;4.10;;
70426;SDS011;57872;55.432;37.248;2023-08-07T16:49:55;11.95;;;4.43;;
70426;SDS011;57872;55.432;37.248;2023-08-07T16:54:57;9.43;;;4.22;;
70426;SDS011;57872;55.432;37.248;2023-08-07T16:59:58;7.32;;;4.28;;
70426;SDS011;57872;55.432;37.248;2023-08-07T17:04:59;8.23;;;3.97;;
70426;SDS011;57872;55.432;37.248;2023-08-07T17:09:59;6.90;;;4.10;;
70426;SDS011;57872;55.432;37.248;2023-08-07T17:15:00;7.80;;;4.13;;
70426;SDS011;57872;55.432;37.248;2023-08-07T17:20:01;11.47;;;4.43;;
70426;SDS011;57872;55.432;37.248;2023-08-07T17:25:04;7.78;;;4.63;;
70426;SDS011;57872;55.432;37.248;2023-08-07T17:35:06;12.30;;;4.30;;
70426;SDS011;57872;55.432;37.248;2023-08-07T17:40:10;7.90;;;4.13;;
70426;SDS011;57872;55.432;37.248;2023-08-07T17:45:12;11.05;;;4.70;;
70426;SDS011;57872;55.432;37.248;2023-08-07T17:50:16;10.65;;;4.80;;
70426;SDS011;57872;55.432;37.248;2023-08-07T17:55:17;9.60;;;4.72;;
70426;SDS011;57872;55.432;37.248;2023-08-07T18:00:18;9.60;;;4.20;;
70426;SDS011;57872;55.432;37.248;2023-08-07T18:05:19;13.15;;;4.80;;
70426;SDS011;57872;55.432;37.248;2023-08-07T18:10:26;12.35;;;4.30;;
70426;SDS011;57872;55.432;37.248;2023-08-07T18:15:35;8.60;;;4.82;;
70426;SDS011;57872;55.432;37.248;2023-08-07T18:21:01;9.32;;;4.97;;
70426;SDS011;57872;55.432;37.248;2023-08-07T18:26:14;10.27;;;5.10;;
70426;SDS011;57872;55.432;37.248;2023-08-07T18:32:10;11.82;;;4.85;;
70426;SDS011;57872;55.432;37.248;2023-08-07T18:42:39;9.40;;;4.97;;
70426;SDS011;57872;55.432;37.248;2023-08-07T18:47:44;9.75;;;4.78;;
70426;SDS011;57872;55.432;37.248;2023-08-07T18:53:31;8.75;;;4.40;;
70426;SDS011;57872;55.432;37.248;2023-08-07T18:58:33;8.48;;;5.05;;
70426;SDS011;57872;55.432;37.248;2023-08-07T19:03:34;13.32;;;5.55;;
70426;SDS011;57872;55.432;37.248;2023-08-07T19:08:36;9.90;;;4.95;;
70426;SDS011;57872;55.432;37.248;2023-08-07T19:13:44;13.20;;;5.30;;
70426;SDS011;57872;55.432;37.248;2023-08-07T19:18:45;9.40;;;5.15;;
70426;SDS011;57872;55.432;37.248;2023-08-07T19:29:09;9.25;;;4.72;;
70426;SDS011;57872;55.432;37.248;2023-08-07T19:34:10;9.55;;;4.70;;
70426;SDS011;57872;55.432;37.248;2023-08-07T19:39:14;8.15;;;4.30;;
70426;SDS011;57872;55.432;37.248;2023-08-07T19:44:15;7.80;;;4.27;;
70426;SDS011;57872;55.432;37.248;2023-08-07T19:49:16;11.47;;;4.73;;
70426;SDS011;57872;55.432;37.248;2023-08-07T19:54:17;8.32;;;3.95;;
70426;SDS011;57872;55.432;37.248;2023-08-07T19:59:22;10.57;;;4.10;;
70426;SDS011;57872;55.432;37.248;2023-08-07T20:04:24;7.47;;;4.30;;
70426;SDS011;57872;55.432;37.248;2023-08-07T20:09:25;7.87;;;4.17;;
70426;SDS011;57872;55.432;37.248;2023-08-07T20:14:32;8.80;;;4.50;;
70426;SDS011;57872;55.432;37.248;2023-08-07T20:20:05;7.05;;;4.35;;
70426;SDS011;57872;55.432;37.248;2023-08-07T20:25:25;7.88;;;4.30;;
70426;SDS011;57872;55.432;37.248;2023-08-07T20:35:35;7.93;;;4.40;;
70426;SDS011;57872;55.432;37.248;2023-08-07T20:40:44;9.23;;;4.53;;
70426;SDS011;57872;55.432;37.248;2023-08-07T20:45:45;7.95;;;4.00;;
70426;SDS011;57872;55.432;37.248;2023-08-07T20:50:55;6.85;;;3.85;;
70426;SDS011;57872;55.432;37.248;2023-08-07T20:55:57;8.40;;;4.53;;
70426;SDS011;57872;55.432;37.248;2023-08-07T21:00:58;9.37;;;4.23;;
70426;SDS011;57872;55.432;37.248;2023-08-07T21:05:58;9.37;;;4.47;;
70426;SDS011;57872;55.432;37.248;2023-08-07T21:11:00;8.23;;;4.13;;
70426;SDS011;57872;55.432;37.248;2023-08-07T21:16:01;7.43;;;3.97;;
70426;SDS011;57872;55.432;37.248;2023-08-07T21:21:04;9.52;;;4.28;;
70426;SDS011;57872;55.432;37.248;2023-08-07T21:26:05;11.30;;;4.00;;
70426;SDS011;57872;55.432;37.248;2023-08-07T21:31:12;7.82;;;3.95;;
70426;SDS011;57872;55.432;37.248;2023-08-07T21:36:16;8.15;;;4.03;;
70426;SDS011;57872;55.432;37.248;2023-08-07T21:41:19;7.90;;;4.13;;
70426;SDS011;57872;55.432;37.248;2023-08-07T21:46:20;10.47;;;4.00;;
70426;SDS011;57872;55.432;37.248;2023-08-07T21:51:21;7.70;;;4.13;;
70426;SDS011;57872;55.432;37.248;2023-08-07T21:56:45;10.37;;;4.13;;
70426;SDS011;57872;55.432;37.248;2023-08-07T22:01:48;8.13;;;3.70;;
70426;SDS011;57872;55.432;37.248;2023-08-07T22:06:49;9.90;;;4.20;;
70426;SDS011;57872;55.432;37.248;2023-08-07T22:11:50;11.05;;;4.05;;
70426;SDS011;57872;55.432;37.248;2023-08-07T22:16:54;10.45;;;4.30;;
70426;SDS011;57872;55.432;37.248;2023-08-07T22:21:55;13.40;;;4.72;;
70426;SDS011;57872;55.432;37.248;2023-08-07T22:27:01;17.70;;;5.03;;
70426;SDS011;57872;55.432;37.248;2023-08-07T22:32:02;13.52;;;4.05;;
70426;SDS011;57872;55.432;37.248;2023-08-07T22:37:03;7.35;;;3.95;;
70426;SDS011;57872;55.432;37.248;2023-08-07T22:42:04;9.93;;;4.00;;
70426;SDS011;57872;55.432;37.248;2023-08-07T22:47:05;8.10;;;4.10;;
70426;SDS011;57872;55.432;37.248;2023-08-07T22:52:06;9.37;;;4.43;;
70426;SDS011;57872;55.432;37.248;2023-08-07T22:57:07;11.13;;;4.35;;
70426;SDS011;57872;55.432;37.248;2023-08-07T23:02:12;10.88;;;4.00;;
70426;SDS011;57872;55.432;37.248;2023-08-07T23:07:13;6.87;;;3.80;;
70426;SDS011;57872;55.432;37.248;2023-08-07T23:12:18;7.93;;;4.55;;
70426;SDS011;57872;55.432;37.248;2023-08-07T23:17:19;10.27;;;4.78;;
70426;SDS011;57872;55.432;37.248;2023-08-07T23:22:20;8.67;;;4.53;;
70426;SDS011;57872;55.432;37.248;2023-08-07T23:27:21;8.63;;;4.33;;
70426;SDS011;57872;55.432;37.248;2023-08-07T23:32:22;7.85;;;4.25;;
70426;SDS011;57872;55.432;37.248;2023-08-07T23:37:23;8.47;;;4.03;;
70426;SDS011;57872;55.432;37.248;2023-08-07T23:42:24;8.40;;;4.63;;
70426;SDS011;57872;55.432;37.248;2023-08-07T23:47:24;11.47;;;4.23;;
70426;SDS011;57872;55.432;37.248;2023-08-07T23:52:25;9.50;;;4.23;;
70426;SDS011;57872;55.432;37.248;2023-08-07T23:57:26;10.05;;;4.35;;
